sensor_id;sensor_type;location;lat;lon;timestamp;P1;durP1;ratioP1;P2;durP2;ratioP2
70199;SDS011;57587;55.688;37.600;2022-10-23T00:00:05;12.40;;;7.07;;
70199;SDS011;57587;55.688;37.600;2022-10-23T00:03:04;14.10;;;7.30;;
70199;SDS011;57587;55.688;37.600;2022-10-23T00:05:37;15.88;;;6.80;;
70199;SDS011;57587;55.688;37.600;2022-10-23T00:08:06;13.63;;;7.32;;
70199;SDS011;57587;55.688;37.600;2022-10-23T00:10:33;13.57;;;7.50;;
70199;SDS011;57587;55.688;37.600;2022-10-23T00:13:10;13.88;;;6.75;;
70199;SDS011;57587;55.688;37.600;2022-10-23T00:15:37;14.47;;;6.60;;
70199;SDS011;57587;55.688;37.600;2022-10-23T00:18:04;12.40;;;6.53;;
70199;SDS011;57587;55.688;37.600;2022-10-23T00:20:31;13.63;;;6.68;;
70199;SDS011;57587;55.688;37.600;2022-10-23T00:23:06;13.70;;;7.30;;
70199;SDS011;57587;55.688;37.600;2022-10-23T00:25:32;15.48;;;6.90;;
70199;SDS011;57587;55.688;37.600;2022-10-23T00:28:00;14.63;;;7.57;;
70199;SDS011;57587;55.688;37.600;2022-10-23T00:30:29;18.60;;;7.47;;
70199;SDS011;57587;55.688;37.600;2022-10-23T00:32:56;14.35;;;7.40;;
70199;SDS011;57587;55.688;37.600;2022-10-23T00:35:26;14.38;;;7.32;;
70199;SDS011;57587;55.688;37.600;2022-10-23T00:37:53;13.68;;;7.35;;
70199;SDS011;57587;55.688;37.600;2022-10-23T00:40:20;15.17;;;7.33;;
70199;SDS011;57587;55.688;37.600;2022-10-23T00:42:50;16.33;;;7.60;;
70199;SDS011;57587;55.688;37.600;2022-10-23T00:45:19;16.50;;;7.80;;
70199;SDS011;57587;55.688;37.600;2022-10-23T00:47:56;17.77;;;8.10;;
70199;SDS011;57587;55.688;37.600;2022-10-23T00:50:32;14.27;;;7.65;;
70199;SDS011;57587;55.688;37.600;2022-10-23T00:53:04;15.33;;;7.53;;
70199;SDS011;57587;55.688;37.600;2022-10-23T00:55:37;16.33;;;7.90;;
70199;SDS011;57587;55.688;37.600;2022-10-23T00:58:13;18.63;;;7.97;;
70199;SDS011;57587;55.688;37.600;2022-10-23T01:00:52;18.85;;;8.23;;
70199;SDS011;57587;55.688;37.600;2022-10-23T01:03:22;13.52;;;7.55;;
70199;SDS011;57587;55.688;37.600;2022-10-23T01:05:59;15.10;;;7.97;;
70199;SDS011;57587;55.688;37.600;2022-10-23T01:08:37;17.80;;;8.10;;
70199;SDS011;57587;55.688;37.600;2022-10-23T01:11:15;15.32;;;7.95;;
70199;SDS011;57587;55.688;37.600;2022-10-23T01:14:00;14.10;;;7.45;;
70199;SDS011;57587;55.688;37.600;2022-10-23T01:27:15;17.25;;;7.38;;
70199;SDS011;57587;55.688;37.600;2022-10-23T01:29:48;14.07;;;7.68;;
70199;SDS011;57587;55.688;37.600;2022-10-23T01:35:11;13.55;;;6.47;;
70199;SDS011;57587;55.688;37.600;2022-10-23T01:40:43;11.88;;;6.88;;
70199;SDS011;57587;55.688;37.600;2022-10-23T01:43:18;12.15;;;6.80;;
70199;SDS011;57587;55.688;37.600;2022-10-23T01:46:02;15.77;;;7.33;;
70199;SDS011;57587;55.688;37.600;2022-10-23T01:48:36;11.88;;;6.35;;
70199;SDS011;57587;55.688;37.600;2022-10-23T01:51:12;13.30;;;7.03;;
70199;SDS011;57587;55.688;37.600;2022-10-23T01:53:43;15.27;;;7.40;;
70199;SDS011;57587;55.688;37.600;2022-10-23T01:56:14;14.07;;;7.43;;
70199;SDS011;57587;55.688;37.600;2022-10-23T01:58:49;12.43;;;6.70;;
70199;SDS011;57587;55.688;37.600;2022-10-23T02:01:32;13.10;;;7.20;;
70199;SDS011;57587;55.688;37.600;2022-10-23T02:04:04;14.98;;;6.78;;
70199;SDS011;57587;55.688;37.600;2022-10-23T02:06:41;12.18;;;7.00;;
70199;SDS011;57587;55.688;37.600;2022-10-23T02:09:11;12.32;;;7.35;;
70199;SDS011;57587;55.688;37.600;2022-10-23T02:14:38;17.55;;;7.55;;
70199;SDS011;57587;55.688;37.600;2022-10-23T02:17:24;14.07;;;7.13;;
70199;SDS011;57587;55.688;37.600;2022-10-23T02:20:01;16.83;;;8.25;;
70199;SDS011;57587;55.688;37.600;2022-10-23T02:22:47;15.25;;;7.72;;
70199;SDS011;57587;55.688;37.600;2022-10-23T02:25:38;15.40;;;8.33;;
70199;SDS011;57587;55.688;37.600;2022-10-23T02:28:14;17.70;;;8.07;;
70199;SDS011;57587;55.688;37.600;2022-10-23T02:30:54;17.95;;;8.27;;
70199;SDS011;57587;55.688;37.600;2022-10-23T02:33:25;15.38;;;7.60;;
70199;SDS011;57587;55.688;37.600;2022-10-23T02:35:54;15.23;;;8.18;;
70199;SDS011;57587;55.688;37.600;2022-10-23T02:38:37;16.53;;;7.83;;
70199;SDS011;57587;55.688;37.600;2022-10-23T02:43:49;14.55;;;8.13;;
70199;SDS011;57587;55.688;37.600;2022-10-23T02:49:38;17.10;;;7.57;;
70199;SDS011;57587;55.688;37.600;2022-10-23T02:55:10;17.42;;;8.00;;
70199;SDS011;57587;55.688;37.600;2022-10-23T03:00:23;18.35;;;8.88;;
70199;SDS011;57587;55.688;37.600;2022-10-23T03:03:51;18.63;;;9.68;;
70199;SDS011;57587;55.688;37.600;2022-10-23T03:05:55;17.93;;;9.40;;
70199;SDS011;57587;55.688;37.600;2022-10-23T03:08:25;18.25;;;9.43;;
70199;SDS011;57587;55.688;37.600;2022-10-23T03:10:52;15.73;;;9.15;;
70199;SDS011;57587;55.688;37.600;2022-10-23T03:13:21;21.92;;;10.05;;
70199;SDS011;57587;55.688;37.600;2022-10-23T03:15:49;16.77;;;9.70;;
70199;SDS011;57587;55.688;37.600;2022-10-23T03:18:18;17.73;;;10.47;;
70199;SDS011;57587;55.688;37.600;2022-10-23T03:20:51;18.30;;;9.50;;
70199;SDS011;57587;55.688;37.600;2022-10-23T03:23:20;18.17;;;10.07;;
70199;SDS011;57587;55.688;37.600;2022-10-23T03:25:48;22.50;;;10.07;;
70199;SDS011;57587;55.688;37.600;2022-10-23T03:28:28;19.65;;;9.73;;
70199;SDS011;57587;55.688;37.600;2022-10-23T03:30:57;17.50;;;9.50;;
70199;SDS011;57587;55.688;37.600;2022-10-23T03:33:30;20.35;;;10.23;;
70199;SDS011;57587;55.688;37.600;2022-10-23T03:36:06;16.77;;;9.27;;
70199;SDS011;57587;55.688;37.600;2022-10-23T03:38:35;16.65;;;9.75;;
70199;SDS011;57587;55.688;37.600;2022-10-23T03:41:03;21.40;;;9.60;;
70199;SDS011;57587;55.688;37.600;2022-10-23T03:43:31;18.23;;;9.97;;
70199;SDS011;57587;55.688;37.600;2022-10-23T03:46:03;19.50;;;9.77;;
70199;SDS011;57587;55.688;37.600;2022-10-23T03:48:34;19.63;;;9.93;;
70199;SDS011;57587;55.688;37.600;2022-10-23T03:51:05;18.25;;;9.35;;
70199;SDS011;57587;55.688;37.600;2022-10-23T03:53:32;20.25;;;9.70;;
70199;SDS011;57587;55.688;37.600;2022-10-23T03:56:05;20.13;;;9.87;;
70199;SDS011;57587;55.688;37.600;2022-10-23T03:58:32;17.55;;;8.93;;
70199;SDS011;57587;55.688;37.600;2022-10-23T04:00:59;18.52;;;10.25;;
70199;SDS011;57587;55.688;37.600;2022-10-23T04:03:27;17.83;;;8.90;;
70199;SDS011;57587;55.688;37.600;2022-10-23T04:05:57;22.08;;;9.85;;
70199;SDS011;57587;55.688;37.600;2022-10-23T04:08:24;23.17;;;10.10;;
70199;SDS011;57587;55.688;37.600;2022-10-23T04:10:56;23.60;;;10.50;;
70199;SDS011;57587;55.688;37.600;2022-10-23T04:13:42;21.33;;;9.95;;
70199;SDS011;57587;55.688;37.600;2022-10-23T04:16:12;18.67;;;9.40;;
70199;SDS011;57587;55.688;37.600;2022-10-23T04:18:39;26.95;;;9.73;;
70199;SDS011;57587;55.688;37.600;2022-10-23T04:21:14;19.50;;;10.10;;
70199;SDS011;57587;55.688;37.600;2022-10-23T04:23:53;18.40;;;9.30;;
70199;SDS011;57587;55.688;37.600;2022-10-23T04:26:21;22.85;;;10.07;;
70199;SDS011;57587;55.688;37.600;2022-10-23T04:28:49;16.77;;;8.85;;
70199;SDS011;57587;55.688;37.600;2022-10-23T04:31:26;22.13;;;9.77;;
70199;SDS011;57587;55.688;37.600;2022-10-23T04:33:54;15.93;;;9.13;;
70199;SDS011;57587;55.688;37.600;2022-10-23T04:36:28;19.05;;;9.35;;
70199;SDS011;57587;55.688;37.600;2022-10-23T04:39:03;19.80;;;9.65;;
70199;SDS011;57587;55.688;37.600;2022-10-23T04:41:30;20.40;;;10.18;;
70199;SDS011;57587;55.688;37.600;2022-10-23T04:44:04;22.33;;;10.57;;
70199;SDS011;57587;55.688;37.600;2022-10-23T04:46:35;19.87;;;9.37;;
70199;SDS011;57587;55.688;37.600;2022-10-23T04:49:10;24.42;;;10.50;;
70199;SDS011;57587;55.688;37.600;2022-10-23T04:51:50;19.35;;;9.75;;
70199;SDS011;57587;55.688;37.600;2022-10-23T04:54:35;21.08;;;10.40;;
70199;SDS011;57587;55.688;37.600;2022-10-23T04:57:21;22.35;;;10.75;;
70199;SDS011;57587;55.688;37.600;2022-10-23T04:59:58;18.97;;;10.07;;
70199;SDS011;57587;55.688;37.600;2022-10-23T05:02:28;21.77;;;11.30;;
70199;SDS011;57587;55.688;37.600;2022-10-23T05:04:55;24.73;;;10.93;;
70199;SDS011;57587;55.688;37.600;2022-10-23T05:07:31;24.15;;;11.27;;
70199;SDS011;57587;55.688;37.600;2022-10-23T05:10:20;23.55;;;11.13;;
70199;SDS011;57587;55.688;37.600;2022-10-23T05:13:00;31.20;;;10.17;;
70199;SDS011;57587;55.688;37.600;2022-10-23T05:15:28;22.10;;;10.25;;
70199;SDS011;57587;55.688;37.600;2022-10-23T05:17:57;22.02;;;10.88;;
70199;SDS011;57587;55.688;37.600;2022-10-23T05:20:33;20.60;;;9.85;;
70199;SDS011;57587;55.688;37.600;2022-10-23T05:23:02;20.75;;;9.95;;
70199;SDS011;57587;55.688;37.600;2022-10-23T05:25:37;19.30;;;9.97;;
70199;SDS011;57587;55.688;37.600;2022-10-23T05:28:16;24.92;;;10.93;;
70199;SDS011;57587;55.688;37.600;2022-10-23T05:30:46;23.58;;;9.15;;
70199;SDS011;57587;55.688;37.600;2022-10-23T05:33:26;20.90;;;9.48;;
70199;SDS011;57587;55.688;37.600;2022-10-23T05:35:54;19.73;;;10.02;;
70199;SDS011;57587;55.688;37.600;2022-10-23T05:38:26;20.43;;;9.70;;
70199;SDS011;57587;55.688;37.600;2022-10-23T05:41:02;21.52;;;10.05;;
70199;SDS011;57587;55.688;37.600;2022-10-23T05:43:36;24.00;;;10.15;;
70199;SDS011;57587;55.688;37.600;2022-10-23T05:46:23;19.40;;;9.18;;
70199;SDS011;57587;55.688;37.600;2022-10-23T05:49:43;18.20;;;9.23;;
70199;SDS011;57587;55.688;37.600;2022-10-23T05:52:30;17.87;;;9.80;;
70199;SDS011;57587;55.688;37.600;2022-10-23T05:55:03;19.80;;;10.43;;
70199;SDS011;57587;55.688;37.600;2022-10-23T05:57:48;19.88;;;10.10;;
70199;SDS011;57587;55.688;37.600;2022-10-23T06:00:27;21.55;;;10.50;;
70199;SDS011;57587;55.688;37.600;2022-10-23T06:03:15;25.02;;;10.80;;
70199;SDS011;57587;55.688;37.600;2022-10-23T06:05:51;23.10;;;10.33;;
70199;SDS011;57587;55.688;37.600;2022-10-23T06:08:21;21.92;;;11.70;;
70199;SDS011;57587;55.688;37.600;2022-10-23T06:10:50;22.05;;;10.52;;
70199;SDS011;57587;55.688;37.600;2022-10-23T06:13:24;20.42;;;9.30;;
70199;SDS011;57587;55.688;37.600;2022-10-23T06:15:51;21.67;;;9.88;;
70199;SDS011;57587;55.688;37.600;2022-10-23T06:18:26;18.30;;;9.80;;
70199;SDS011;57587;55.688;37.600;2022-10-23T06:21:03;19.17;;;10.40;;
70199;SDS011;57587;55.688;37.600;2022-10-23T06:23:34;19.63;;;10.52;;
70199;SDS011;57587;55.688;37.600;2022-10-23T06:26:33;20.92;;;11.00;;
70199;SDS011;57587;55.688;37.600;2022-10-23T06:29:09;23.08;;;11.00;;
70199;SDS011;57587;55.688;37.600;2022-10-23T06:31:47;22.97;;;11.17;;
70199;SDS011;57587;55.688;37.600;2022-10-23T06:34:18;24.65;;;11.63;;
70199;SDS011;57587;55.688;37.600;2022-10-23T06:36:46;21.90;;;11.32;;
70199;SDS011;57587;55.688;37.600;2022-10-23T06:39:46;18.50;;;9.93;;
70199;SDS011;57587;55.688;37.600;2022-10-23T06:42:17;24.52;;;11.05;;
70199;SDS011;57587;55.688;37.600;2022-10-23T06:44:50;21.53;;;10.83;;
70199;SDS011;57587;55.688;37.600;2022-10-23T06:47:37;23.42;;;10.40;;
70199;SDS011;57587;55.688;37.600;2022-10-23T06:50:26;20.40;;;10.50;;
70199;SDS011;57587;55.688;37.600;2022-10-23T06:53:01;22.77;;;10.35;;
70199;SDS011;57587;55.688;37.600;2022-10-23T06:55:35;24.60;;;10.35;;
70199;SDS011;57587;55.688;37.600;2022-10-23T06:58:13;19.83;;;10.07;;
70199;SDS011;57587;55.688;37.600;2022-10-23T07:01:10;24.35;;;12.25;;
70199;SDS011;57587;55.688;37.600;2022-10-23T07:03:41;20.58;;;10.85;;
70199;SDS011;57587;55.688;37.600;2022-10-23T07:06:16;22.98;;;10.88;;
70199;SDS011;57587;55.688;37.600;2022-10-23T07:08:46;25.70;;;11.30;;
70199;SDS011;57587;55.688;37.600;2022-10-23T07:11:32;22.23;;;10.97;;
70199;SDS011;57587;55.688;37.600;2022-10-23T07:14:01;22.45;;;11.70;;
70199;SDS011;57587;55.688;37.600;2022-10-23T07:16:29;23.30;;;10.95;;
70199;SDS011;57587;55.688;37.600;2022-10-23T07:19:05;25.05;;;11.82;;
70199;SDS011;57587;55.688;37.600;2022-10-23T07:21:52;27.13;;;11.20;;
70199;SDS011;57587;55.688;37.600;2022-10-23T07:24:35;24.20;;;11.63;;
70199;SDS011;57587;55.688;37.600;2022-10-23T07:27:19;23.75;;;12.25;;
70199;SDS011;57587;55.688;37.600;2022-10-23T07:29:54;30.95;;;13.25;;
70199;SDS011;57587;55.688;37.600;2022-10-23T07:32:21;23.60;;;12.57;;
70199;SDS011;57587;55.688;37.600;2022-10-23T07:35:22;25.95;;;12.25;;
70199;SDS011;57587;55.688;37.600;2022-10-23T07:38:20;25.30;;;11.60;;
70199;SDS011;57587;55.688;37.600;2022-10-23T07:40:52;27.25;;;12.73;;
70199;SDS011;57587;55.688;37.600;2022-10-23T07:46:19;28.92;;;12.52;;
70199;SDS011;57587;55.688;37.600;2022-10-23T07:48:46;25.88;;;12.82;;
70199;SDS011;57587;55.688;37.600;2022-10-23T07:51:17;25.80;;;11.97;;
70199;SDS011;57587;55.688;37.600;2022-10-23T07:53:53;29.42;;;13.52;;
70199;SDS011;57587;55.688;37.600;2022-10-23T07:56:46;26.77;;;12.60;;
70199;SDS011;57587;55.688;37.600;2022-10-23T07:59:22;28.30;;;13.40;;
70199;SDS011;57587;55.688;37.600;2022-10-23T08:01:56;24.55;;;11.95;;
70199;SDS011;57587;55.688;37.600;2022-10-23T08:04:40;24.90;;;11.87;;
70199;SDS011;57587;55.688;37.600;2022-10-23T08:07:32;31.95;;;13.63;;
70199;SDS011;57587;55.688;37.600;2022-10-23T08:10:00;30.67;;;14.15;;
70199;SDS011;57587;55.688;37.600;2022-10-23T08:12:37;29.92;;;14.38;;
70199;SDS011;57587;55.688;37.600;2022-10-23T08:15:04;32.95;;;14.07;;
70199;SDS011;57587;55.688;37.600;2022-10-23T08:17:47;29.37;;;14.03;;
70199;SDS011;57587;55.688;37.600;2022-10-23T08:20:39;28.58;;;13.50;;
70199;SDS011;57587;55.688;37.600;2022-10-23T08:23:10;34.85;;;14.90;;
70199;SDS011;57587;55.688;37.600;2022-10-23T08:25:39;29.17;;;12.88;;
70199;SDS011;57587;55.688;37.600;2022-10-23T08:28:07;34.92;;;14.07;;
70199;SDS011;57587;55.688;37.600;2022-10-23T08:30:42;34.30;;;14.33;;
70199;SDS011;57587;55.688;37.600;2022-10-23T08:33:18;30.67;;;13.90;;
70199;SDS011;57587;55.688;37.600;2022-10-23T08:35:47;35.78;;;15.35;;
70199;SDS011;57587;55.688;37.600;2022-10-23T08:38:25;33.97;;;14.10;;
70199;SDS011;57587;55.688;37.600;2022-10-23T08:40:56;32.60;;;14.48;;
70199;SDS011;57587;55.688;37.600;2022-10-23T08:43:46;36.37;;;14.33;;
70199;SDS011;57587;55.688;37.600;2022-10-23T08:46:29;37.53;;;14.95;;
70199;SDS011;57587;55.688;37.600;2022-10-23T08:49:19;33.15;;;14.63;;
70199;SDS011;57587;55.688;37.600;2022-10-23T08:51:55;30.17;;;13.40;;
70199;SDS011;57587;55.688;37.600;2022-10-23T08:57:37;30.57;;;13.47;;
70199;SDS011;57587;55.688;37.600;2022-10-23T09:00:12;30.63;;;14.35;;
70199;SDS011;57587;55.688;37.600;2022-10-23T09:02:44;34.70;;;14.00;;
70199;SDS011;57587;55.688;37.600;2022-10-23T09:11:48;34.93;;;14.43;;
70199;SDS011;57587;55.688;37.600;2022-10-23T09:17:27;33.55;;;15.88;;
70199;SDS011;57587;55.688;37.600;2022-10-23T09:22:49;33.08;;;14.18;;
70199;SDS011;57587;55.688;37.600;2022-10-23T09:25:24;36.07;;;14.17;;
70199;SDS011;57587;55.688;37.600;2022-10-23T09:27:59;32.08;;;15.27;;
70199;SDS011;57587;55.688;37.600;2022-10-23T09:30:38;34.28;;;14.27;;
70199;SDS011;57587;55.688;37.600;2022-10-23T09:36:18;33.60;;;14.80;;
70199;SDS011;57587;55.688;37.600;2022-10-23T09:46:40;31.42;;;15.13;;
70199;SDS011;57587;55.688;37.600;2022-10-23T09:49:38;39.17;;;15.18;;
70199;SDS011;57587;55.688;37.600;2022-10-23T10:00:23;39.80;;;15.30;;
70199;SDS011;57587;55.688;37.600;2022-10-23T10:02:43;41.17;;;15.57;;
70199;SDS011;57587;55.688;37.600;2022-10-23T10:05:37;33.90;;;14.17;;
70199;SDS011;57587;55.688;37.600;2022-10-23T10:08:31;40.28;;;14.43;;
70199;SDS011;57587;55.688;37.600;2022-10-23T10:13:44;38.75;;;15.88;;
70199;SDS011;57587;55.688;37.600;2022-10-23T10:19:43;40.40;;;15.03;;
70199;SDS011;57587;55.688;37.600;2022-10-23T10:22:56;39.25;;;14.75;;
70199;SDS011;57587;55.688;37.600;2022-10-23T10:37:46;39.60;;;14.45;;
70199;SDS011;57587;55.688;37.600;2022-10-23T10:45:56;33.85;;;12.98;;
70199;SDS011;57587;55.688;37.600;2022-10-23T10:51:42;30.20;;;13.50;;
70199;SDS011;57587;55.688;37.600;2022-10-23T10:57:38;30.85;;;13.32;;
70199;SDS011;57587;55.688;37.600;2022-10-23T11:00:19;33.72;;;13.65;;
70199;SDS011;57587;55.688;37.600;2022-10-23T11:05:35;32.85;;;14.38;;
70199;SDS011;57587;55.688;37.600;2022-10-23T11:08:14;37.97;;;13.95;;
70199;SDS011;57587;55.688;37.600;2022-10-23T11:10:53;32.50;;;14.15;;
70199;SDS011;57587;55.688;37.600;2022-10-23T11:13:27;33.42;;;13.38;;
70199;SDS011;57587;55.688;37.600;2022-10-23T11:33:59;33.10;;;13.52;;
70199;SDS011;57587;55.688;37.600;2022-10-23T11:36:44;40.03;;;13.75;;
70199;SDS011;57587;55.688;37.600;2022-10-23T11:39:20;32.97;;;13.85;;
70199;SDS011;57587;55.688;37.600;2022-10-23T11:44:40;34.33;;;13.37;;
70199;SDS011;57587;55.688;37.600;2022-10-23T11:47:37;33.60;;;13.55;;
70199;SDS011;57587;55.688;37.600;2022-10-23T11:52:37;34.30;;;14.95;;
70199;SDS011;57587;55.688;37.600;2022-10-23T11:55:54;34.58;;;14.23;;
70199;SDS011;57587;55.688;37.600;2022-10-23T11:58:46;31.60;;;14.67;;
70199;SDS011;57587;55.688;37.600;2022-10-23T12:06:24;32.50;;;14.43;;
70199;SDS011;57587;55.688;37.600;2022-10-23T12:09:01;32.38;;;13.90;;
70199;SDS011;57587;55.688;37.600;2022-10-23T12:14:47;34.10;;;14.38;;
70199;SDS011;57587;55.688;37.600;2022-10-23T12:19:55;33.05;;;14.32;;
70199;SDS011;57587;55.688;37.600;2022-10-23T12:34:00;37.25;;;14.50;;
70199;SDS011;57587;55.688;37.600;2022-10-23T12:39:35;37.57;;;15.77;;
70199;SDS011;57587;55.688;37.600;2022-10-23T12:42:10;37.75;;;15.40;;
70199;SDS011;57587;55.688;37.600;2022-10-23T12:44:43;34.47;;;14.80;;
70199;SDS011;57587;55.688;37.600;2022-10-23T12:47:13;37.05;;;15.15;;
70199;SDS011;57587;55.688;37.600;2022-10-23T12:49:48;43.10;;;16.50;;
70199;SDS011;57587;55.688;37.600;2022-10-23T12:52:19;37.60;;;14.87;;
70199;SDS011;57587;55.688;37.600;2022-10-23T12:54:54;35.08;;;14.57;;
70199;SDS011;57587;55.688;37.600;2022-10-23T12:57:27;34.85;;;15.18;;
70199;SDS011;57587;55.688;37.600;2022-10-23T12:59:59;40.22;;;15.57;;
70199;SDS011;57587;55.688;37.600;2022-10-23T13:02:34;35.20;;;15.50;;
70199;SDS011;57587;55.688;37.600;2022-10-23T13:05:04;37.77;;;16.20;;
70199;SDS011;57587;55.688;37.600;2022-10-23T13:07:36;40.40;;;16.25;;
70199;SDS011;57587;55.688;37.600;2022-10-23T13:10:17;36.13;;;15.68;;
70199;SDS011;57587;55.688;37.600;2022-10-23T13:12:54;43.28;;;17.00;;
70199;SDS011;57587;55.688;37.600;2022-10-23T13:15:37;40.42;;;17.60;;
70199;SDS011;57587;55.688;37.600;2022-10-23T13:18:08;43.27;;;17.40;;
70199;SDS011;57587;55.688;37.600;2022-10-23T13:20:40;40.22;;;15.90;;
70199;SDS011;57587;55.688;37.600;2022-10-23T13:23:31;39.22;;;16.02;;
70199;SDS011;57587;55.688;37.600;2022-10-23T13:28:42;42.70;;;17.00;;
70199;SDS011;57587;55.688;37.600;2022-10-23T13:38:57;42.03;;;17.55;;
70199;SDS011;57587;55.688;37.600;2022-10-23T13:41:40;42.78;;;19.08;;
70199;SDS011;57587;55.688;37.600;2022-10-23T13:44:16;39.40;;;17.27;;
70199;SDS011;57587;55.688;37.600;2022-10-23T13:46:51;39.28;;;16.92;;
70199;SDS011;57587;55.688;37.600;2022-10-23T13:49:21;41.88;;;17.30;;
70199;SDS011;57587;55.688;37.600;2022-10-23T13:51:55;40.45;;;17.48;;
70199;SDS011;57587;55.688;37.600;2022-10-23T13:54:31;40.58;;;18.15;;
70199;SDS011;57587;55.688;37.600;2022-10-23T13:57:01;38.60;;;17.47;;
70199;SDS011;57587;55.688;37.600;2022-10-23T13:59:31;41.47;;;16.25;;
70199;SDS011;57587;55.688;37.600;2022-10-23T14:02:01;37.95;;;16.67;;
70199;SDS011;57587;55.688;37.600;2022-10-23T14:04:30;37.20;;;15.48;;
70199;SDS011;57587;55.688;37.600;2022-10-23T14:07:07;35.85;;;14.68;;
70199;SDS011;57587;55.688;37.600;2022-10-23T14:09:34;37.03;;;14.93;;
70199;SDS011;57587;55.688;37.600;2022-10-23T14:12:09;29.50;;;13.88;;
70199;SDS011;57587;55.688;37.600;2022-10-23T14:14:46;33.90;;;14.48;;
70199;SDS011;57587;55.688;37.600;2022-10-23T14:17:17;30.02;;;13.52;;
70199;SDS011;57587;55.688;37.600;2022-10-23T14:19:44;27.42;;;12.75;;
70199;SDS011;57587;55.688;37.600;2022-10-23T14:22:14;32.47;;;15.50;;
70199;SDS011;57587;55.688;37.600;2022-10-23T14:24:43;25.27;;;12.77;;
70199;SDS011;57587;55.688;37.600;2022-10-23T14:27:13;25.42;;;13.73;;
70199;SDS011;57587;55.688;37.600;2022-10-23T14:29:42;33.38;;;13.82;;
70199;SDS011;57587;55.688;37.600;2022-10-23T14:32:09;26.55;;;14.18;;
70199;SDS011;57587;55.688;37.600;2022-10-23T14:34:40;27.70;;;13.77;;
70199;SDS011;57587;55.688;37.600;2022-10-23T14:37:10;28.20;;;13.55;;
70199;SDS011;57587;55.688;37.600;2022-10-23T14:39:42;27.48;;;13.05;;
70199;SDS011;57587;55.688;37.600;2022-10-23T14:42:22;28.90;;;13.13;;
70199;SDS011;57587;55.688;37.600;2022-10-23T14:45:01;28.15;;;12.75;;
70199;SDS011;57587;55.688;37.600;2022-10-23T14:47:34;30.83;;;13.20;;
70199;SDS011;57587;55.688;37.600;2022-10-23T14:50:06;25.40;;;12.10;;
70199;SDS011;57587;55.688;37.600;2022-10-23T14:52:40;24.58;;;12.50;;
70199;SDS011;57587;55.688;37.600;2022-10-23T14:55:07;26.35;;;13.00;;
70199;SDS011;57587;55.688;37.600;2022-10-23T14:57:34;24.17;;;12.70;;
70199;SDS011;57587;55.688;37.600;2022-10-23T15:00:01;23.37;;;12.37;;
70199;SDS011;57587;55.688;37.600;2022-10-23T15:02:37;29.13;;;13.13;;
70199;SDS011;57587;55.688;37.600;2022-10-23T15:05:04;26.20;;;12.82;;
70199;SDS011;57587;55.688;37.600;2022-10-23T15:07:39;25.38;;;13.07;;
70199;SDS011;57587;55.688;37.600;2022-10-23T15:10:08;22.63;;;12.38;;
70199;SDS011;57587;55.688;37.600;2022-10-23T15:12:37;29.37;;;12.87;;
70199;SDS011;57587;55.688;37.600;2022-10-23T15:15:05;25.08;;;13.52;;
70199;SDS011;57587;55.688;37.600;2022-10-23T15:17:33;28.20;;;13.43;;
70199;SDS011;57587;55.688;37.600;2022-10-23T15:20:01;28.33;;;13.77;;
70199;SDS011;57587;55.688;37.600;2022-10-23T15:22:29;28.10;;;13.38;;
70199;SDS011;57587;55.688;37.600;2022-10-23T15:24:56;26.20;;;13.43;;
70199;SDS011;57587;55.688;37.600;2022-10-23T15:27:23;29.63;;;12.52;;
70199;SDS011;57587;55.688;37.600;2022-10-23T15:29:52;27.02;;;13.13;;
70199;SDS011;57587;55.688;37.600;2022-10-23T15:32:24;25.40;;;13.05;;
70199;SDS011;57587;55.688;37.600;2022-10-23T15:35:01;27.70;;;13.85;;
70199;SDS011;57587;55.688;37.600;2022-10-23T15:37:30;30.83;;;13.90;;
70199;SDS011;57587;55.688;37.600;2022-10-23T15:39:57;24.33;;;12.73;;
70199;SDS011;57587;55.688;37.600;2022-10-23T15:42:35;27.40;;;13.95;;
70199;SDS011;57587;55.688;37.600;2022-10-23T15:45:05;26.38;;;12.20;;
70199;SDS011;57587;55.688;37.600;2022-10-23T15:47:38;25.55;;;13.13;;
70199;SDS011;57587;55.688;37.600;2022-10-23T15:50:20;28.73;;;13.47;;
70199;SDS011;57587;55.688;37.600;2022-10-23T15:52:47;28.38;;;12.60;;
70199;SDS011;57587;55.688;37.600;2022-10-23T15:55:24;27.95;;;14.02;;
70199;SDS011;57587;55.688;37.600;2022-10-23T15:57:59;29.55;;;13.77;;
70199;SDS011;57587;55.688;37.600;2022-10-23T16:00:33;29.33;;;13.93;;
70199;SDS011;57587;55.688;37.600;2022-10-23T16:03:03;28.97;;;13.63;;
70199;SDS011;57587;55.688;37.600;2022-10-23T16:05:34;33.75;;;14.65;;
70199;SDS011;57587;55.688;37.600;2022-10-23T16:08:02;31.20;;;15.05;;
70199;SDS011;57587;55.688;37.600;2022-10-23T16:10:32;27.20;;;13.23;;
70199;SDS011;57587;55.688;37.600;2022-10-23T16:12:59;25.92;;;12.98;;
70199;SDS011;57587;55.688;37.600;2022-10-23T16:15:28;25.10;;;13.47;;
70199;SDS011;57587;55.688;37.600;2022-10-23T16:18:04;32.00;;;15.15;;
70199;SDS011;57587;55.688;37.600;2022-10-23T16:20:32;28.75;;;13.68;;
70199;SDS011;57587;55.688;37.600;2022-10-23T16:23:02;25.00;;;13.20;;
70199;SDS011;57587;55.688;37.600;2022-10-23T16:25:35;26.77;;;13.07;;
70199;SDS011;57587;55.688;37.600;2022-10-23T16:28:05;35.47;;;17.83;;
70199;SDS011;57587;55.688;37.600;2022-10-23T16:30:38;30.52;;;13.40;;
70199;SDS011;57587;55.688;37.600;2022-10-23T16:33:11;30.60;;;14.18;;
70199;SDS011;57587;55.688;37.600;2022-10-23T16:35:41;27.27;;;13.30;;
70199;SDS011;57587;55.688;37.600;2022-10-23T16:38:14;26.45;;;12.38;;
70199;SDS011;57587;55.688;37.600;2022-10-23T16:40:48;22.97;;;12.03;;
70199;SDS011;57587;55.688;37.600;2022-10-23T16:43:41;27.67;;;12.68;;
70199;SDS011;57587;55.688;37.600;2022-10-23T16:46:38;26.85;;;12.32;;
70199;SDS011;57587;55.688;37.600;2022-10-23T16:49:08;25.95;;;13.10;;
70199;SDS011;57587;55.688;37.600;2022-10-23T16:51:35;29.80;;;12.18;;
70199;SDS011;57587;55.688;37.600;2022-10-23T16:54:05;24.70;;;12.13;;
70199;SDS011;57587;55.688;37.600;2022-10-23T16:56:52;24.63;;;12.70;;
70199;SDS011;57587;55.688;37.600;2022-10-23T16:59:21;31.30;;;13.85;;
70199;SDS011;57587;55.688;37.600;2022-10-23T17:01:51;29.40;;;12.63;;
70199;SDS011;57587;55.688;37.600;2022-10-23T17:04:19;25.02;;;12.52;;
70199;SDS011;57587;55.688;37.600;2022-10-23T17:06:46;30.30;;;13.90;;
70199;SDS011;57587;55.688;37.600;2022-10-23T17:09:13;23.30;;;12.10;;
70199;SDS011;57587;55.688;37.600;2022-10-23T17:11:40;22.52;;;12.05;;
70199;SDS011;57587;55.688;37.600;2022-10-23T17:14:16;26.20;;;12.80;;
70199;SDS011;57587;55.688;37.600;2022-10-23T17:16:47;24.90;;;12.60;;
70199;SDS011;57587;55.688;37.600;2022-10-23T17:19:19;26.27;;;12.77;;
70199;SDS011;57587;55.688;37.600;2022-10-23T17:22:19;26.00;;;12.65;;
70199;SDS011;57587;55.688;37.600;2022-10-23T17:24:45;25.08;;;12.70;;
70199;SDS011;57587;55.688;37.600;2022-10-23T17:27:20;24.80;;;12.20;;
70199;SDS011;57587;55.688;37.600;2022-10-23T17:29:47;27.95;;;12.73;;
70199;SDS011;57587;55.688;37.600;2022-10-23T17:32:14;24.27;;;11.37;;
70199;SDS011;57587;55.688;37.600;2022-10-23T17:34:42;27.02;;;14.23;;
70199;SDS011;57587;55.688;37.600;2022-10-23T17:37:13;26.27;;;14.02;;